Pembroke, Massachusetts
Current Conditions -  °F | °C
As of 11:31 PM on Wednesday 26 Nov 2014 (Local Time) from KPYM Reporting Station
Light Rain Light Rain  
Wind Chill: 28°   Ceiling: 900
Heat Index: 39°   Visibility: 4mi
Dew Point: 38°   Wind: 26mph
Humidity: 96%   Direction: 360°N
Pressure: 29.59"   Gusts: 38mph
Location:  42.07°N, 70.81°W
Report Text: KPYM 270431Z AUTO 36023G33KT 4SM -RA BR BKN009 OVC015 04/03 A2959 RMK AO2 PK WND 01036/0413 P0002 T00390033
Loading
Personal Weather Stations






























Interactive Weather Map New forecast layout! Learn more

10-Day Weather Forecast

Advertisements
Track Severe Weather on mobile